Time;durP1;ratioP1;P1;durP2;ratioP2;P2;SDS_P1;SDS_P2;PMS_P1;PMS_P2;Temp;Humidity;BMP_temperature;BMP_pressure;BME280_temperature;BME280_humidity;BME280_pressure;Samples;Min_cycle;Max_cycle;Signal;HPM_P1;HPM_P2
2023/02/17 00:01:22;;;;;;;5.72;4.40;;;9.50;56.20;;;;;;5014209;28;20049;-83
2023/02/17 00:03:49;;;;;;;5.68;4.28;;;9.50;56.20;;;;;;5012947;28;20030;-80
2023/02/17 00:06:17;;;;;;;5.75;4.07;;;9.60;56.30;;;;;;5011445;28;20042;-84
2023/02/17 00:08:44;;;;;;;5.65;3.75;;;9.60;56.30;;;;;;5016406;28;20044;-83
2023/02/17 00:11:10;;;;;;;5.22;4.30;;;9.60;56.20;;;;;;5013709;28;20037;-85
2023/02/17 00:13:36;;;;;;;5.80;4.45;;;9.60;56.30;;;;;;5013303;28;20107;-82
2023/02/17 00:16:11;;;;;;;5.18;4.10;;;9.50;56.20;;;;;;5013110;28;20493;-84
2023/02/17 00:18:37;;;;;;;6.45;4.47;;;9.60;56.20;;;;;;5014442;28;20095;-82
2023/02/17 00:21:18;;;;;;;6.20;4.18;;;9.60;56.20;;;;;;5027271;28;20046;-84
2023/02/17 00:23:45;;;;;;;5.85;4.47;;;9.60;56.10;;;;;;5014599;28;20117;-84
2023/02/17 00:26:11;;;;;;;6.47;4.35;;;9.60;56.00;;;;;;5014192;28;20034;-83
2023/02/17 00:28:37;;;;;;;4.45;4.05;;;9.60;55.90;;;;;;5014806;28;20038;-81
2023/02/17 00:31:14;;;;;;;4.63;3.83;;;9.60;56.00;;;;;;5014903;28;20057;-81
2023/02/17 00:33:41;;;;;;;5.82;4.32;;;9.60;55.90;;;;;;5031490;28;20034;-80
2023/02/17 00:36:12;;;;;;;5.65;4.20;;;9.60;56.00;;;;;;5029018;28;20088;-85
2023/02/17 00:38:38;;;;;;;5.50;4.38;;;9.60;55.90;;;;;;5022782;28;20692;-86
2023/02/17 00:41:04;;;;;;;5.72;4.25;;;9.60;55.90;;;;;;5013309;28;20426;-87
2023/02/17 00:43:30;;;;;;;5.75;3.95;;;9.60;55.90;;;;;;5013934;28;20026;-81
2023/02/17 00:45:56;;;;;;;5.10;4.55;;;9.60;55.90;;;;;;5012496;28;20040;-77
2023/02/17 00:48:22;;;;;;;4.97;3.97;;;9.60;55.90;;;;;;5015231;28;20029;-83
2023/02/17 00:50:48;;;;;;;7.43;3.78;;;9.60;56.00;;;;;;5017711;28;20049;-83
2023/02/17 00:53:15;;;;;;;6.82;4.15;;;9.60;55.80;;;;;;5012984;28;20030;-82
2023/02/17 00:55:41;;;;;;;6.10;4.35;;;9.60;55.80;;;;;;5045443;28;20428;-83
2023/02/17 00:58:07;;;;;;;6.65;4.55;;;9.60;55.90;;;;;;5046459;28;20566;-84
2023/02/17 01:00:33;;;;;;;5.50;4.22;;;9.60;55.90;;;;;;5014139;28;20026;-77
2023/02/17 01:03:00;;;;;;;5.97;4.78;;;9.60;55.80;;;;;;5045701;28;20553;-84
2023/02/17 01:05:26;;;;;;;5.20;3.88;;;9.60;55.80;;;;;;5004292;28;20030;-83
2023/02/17 01:07:51;;;;;;;5.68;4.35;;;9.60;55.90;;;;;;5015298;28;20034;-82
2023/02/17 01:10:18;;;;;;;5.63;4.20;;;9.60;55.90;;;;;;5028758;28;20030;-82
2023/02/17 01:12:44;;;;;;;5.15;3.95;;;9.70;55.80;;;;;;5013767;28;20038;-83
2023/02/17 01:15:10;;;;;;;5.13;4.10;;;9.60;55.70;;;;;;5045625;28;20634;-82
2023/02/17 01:17:36;;;;;;;5.28;4.03;;;9.60;55.80;;;;;;5044518;28;20108;-81
2023/02/17 01:20:03;;;;;;;7.68;5.20;;;9.60;55.80;;;;;;5014872;28;20175;-81
2023/02/17 01:22:29;;;;;;;5.20;4.18;;;9.60;55.70;;;;;;5013763;28;20072;-82
2023/02/17 01:24:55;;;;;;;6.57;4.78;;;9.70;55.80;;;;;;5049619;28;20476;-77
2023/02/17 01:27:21;;;;;;;6.72;5.00;;;9.60;55.70;;;;;;5000532;28;20030;-83
2023/02/17 01:29:47;;;;;;;5.75;4.72;;;9.70;55.80;;;;;;5018329;28;20071;-80
2023/02/17 01:32:13;;;;;;;6.38;4.90;;;9.70;55.80;;;;;;5007256;28;20034;-83
2023/02/17 01:34:39;;;;;;;7.57;4.90;;;9.60;55.70;;;;;;5035322;28;20034;-83
2023/02/17 01:37:05;;;;;;;8.50;5.10;;;9.70;55.80;;;;;;5049054;28;20034;-84
2023/02/17 01:39:34;;;;;;;7.55;5.03;;;9.70;55.80;;;;;;4998932;28;20061;-78
2023/02/17 01:42:00;;;;;;;6.93;5.50;;;9.70;55.70;;;;;;5049645;28;20049;-83
2023/02/17 01:44:30;;;;;;;7.07;5.20;;;9.70;55.60;;;;;;5050529;28;20034;-85
2023/02/17 01:46:56;;;;;;;8.60;5.47;;;9.70;55.50;;;;;;5020768;28;20063;-77
2023/02/17 01:49:36;;;;;;;7.13;5.20;;;9.60;55.40;;;;;;5018240;28;20453;-82
2023/02/17 01:52:18;;;;;;;6.50;5.38;;;9.70;55.50;;;;;;5017402;28;20049;-84
2023/02/17 01:54:59;;;;;;;9.90;5.88;;;9.70;55.50;;;;;;5016259;28;20537;-82
2023/02/17 01:57:30;;;;;;;7.93;5.70;;;9.70;55.50;;;;;;5037213;28;20057;-80
2023/02/17 01:59:57;;;;;;;6.35;5.05;;;9.70;55.50;;;;;;5035962;28;20045;-80
2023/02/17 02:02:23;;;;;;;6.70;5.63;;;9.70;55.50;;;;;;5036643;28;20075;-86
2023/02/17 02:04:52;;;;;;;6.85;5.50;;;9.70;55.40;;;;;;5039546;28;20033;-85
2023/02/17 02:07:23;;;;;;;8.25;5.35;;;9.70;55.40;;;;;;5041413;28;20025;-85
2023/02/17 02:09:53;;;;;;;9.18;5.95;;;9.70;55.40;;;;;;5052241;28;20025;-81
2023/02/17 02:12:34;;;;;;;6.80;5.70;;;9.70;55.40;;;;;;5036685;28;20039;-83
2023/02/17 02:15:05;;;;;;;11.02;6.15;;;9.70;55.30;;;;;;5036194;28;20040;-80
2023/02/17 02:17:59;;;;;;;8.55;5.55;;;9.70;55.40;;;;;;5039336;28;20040;-84
2023/02/17 02:20:43;;;;;;;7.95;5.43;;;9.70;55.40;;;;;;5037504;28;20037;-83
2023/02/17 02:23:38;;;;;;;8.43;5.88;;;9.70;55.50;;;;;;5053458;28;20423;-84
2023/02/17 02:26:26;;;;;;;7.18;6.03;;;9.70;55.40;;;;;;5039855;28;20042;-83
2023/02/17 02:29:14;;;;;;;7.35;5.75;;;9.70;55.40;;;;;;5035386;28;20253;-78
2023/02/17 02:32:22;;;;;;;7.22;5.60;;;9.70;55.30;;;;;;5052437;28;20090;-78
2023/02/17 02:35:17;;;;;;;7.95;5.90;;;9.70;55.30;;;;;;5035095;28;20740;-82
2023/02/17 02:37:57;;;;;;;8.00;6.10;;;9.70;55.30;;;;;;5035855;28;20030;-84
2023/02/17 02:40:28;;;;;;;9.32;6.55;;;9.70;55.40;;;;;;5035849;28;20038;-84
2023/02/17 02:42:56;;;;;;;8.95;6.32;;;9.70;55.30;;;;;;5051134;28;20037;-81
2023/02/17 02:45:22;;;;;;;9.85;6.40;;;9.70;55.20;;;;;;5018569;28;20078;-84
2023/02/17 02:47:49;;;;;;;8.68;6.43;;;9.70;55.20;;;;;;5035667;28;20057;-82
2023/02/17 02:50:22;;;;;;;9.43;7.10;;;9.70;55.20;;;;;;5034815;28;20040;-83
2023/02/17 02:53:18;;;;;;;8.90;6.53;;;9.70;55.20;;;;;;5022148;28;20033;-83
2023/02/17 02:55:47;;;;;;;9.55;6.38;;;9.70;55.20;;;;;;5035587;28;20029;-80
2023/02/17 02:58:46;;;;;;;10.23;6.80;;;9.70;55.10;;;;;;5023357;28;20029;-79
2023/02/17 03:01:19;;;;;;;9.38;6.88;;;9.70;55.10;;;;;;5050573;28;20041;-75
2023/02/17 03:04:00;;;;;;;10.35;7.32;;;9.70;55.00;;;;;;5035190;28;20493;-80
2023/02/17 03:06:39;;;;;;;12.10;7.40;;;9.70;54.90;;;;;;5034976;28;20049;-79
2023/02/17 03:09:10;;;;;;;10.45;7.20;;;9.70;55.00;;;;;;5000337;28;20034;-77
2023/02/17 03:11:36;;;;;;;10.45;7.88;;;9.70;55.00;;;;;;5030254;28;20153;-80
2023/02/17 03:14:10;;;;;;;10.65;7.43;;;9.70;55.00;;;;;;5047535;28;20045;-80
2023/02/17 03:16:40;;;;;;;10.40;7.55;;;9.70;55.00;;;;;;5046864;28;20420;-75
2023/02/17 03:19:08;;;;;;;13.38;8.32;;;9.70;54.90;;;;;;5014939;28;20038;-77
2023/02/17 03:21:39;;;;;;;12.30;7.72;;;9.70;54.90;;;;;;5014629;28;20038;-77
2023/02/17 03:24:06;;;;;;;9.68;7.65;;;9.70;55.00;;;;;;5015394;28;20050;-77
2023/02/17 03:26:32;;;;;;;11.45;7.97;;;9.70;55.00;;;;;;5019363;28;20035;-77
2023/02/17 03:28:57;;;;;;;11.45;8.15;;;9.70;55.00;;;;;;5014070;28;20033;-77
2023/02/17 03:31:24;;;;;;;11.50;7.78;;;9.70;55.00;;;;;;5046261;28;20038;-78
2023/02/17 03:33:50;;;;;;;10.52;7.18;;;9.70;55.00;;;;;;5014630;28;20494;-77
2023/02/17 03:36:16;;;;;;;9.50;7.55;;;9.70;54.90;;;;;;5015440;28;20053;-81
2023/02/17 03:38:42;;;;;;;13.45;8.70;;;9.70;55.00;;;;;;5015185;28;20432;-82
2023/02/17 03:41:08;;;;;;;14.00;8.00;;;9.70;55.00;;;;;;5015917;28;20030;-89
2023/02/17 03:43:34;;;;;;;13.35;8.55;;;9.70;55.00;;;;;;5014565;28;20049;-82
2023/02/17 03:46:00;;;;;;;11.90;8.32;;;9.70;55.00;;;;;;5021189;28;20116;-86
2023/02/17 03:48:26;;;;;;;13.10;7.60;;;9.70;55.00;;;;;;5037878;28;20136;-85
2023/02/17 03:50:52;;;;;;;10.07;7.28;;;9.70;55.00;;;;;;5027219;28;20597;-87
2023/02/17 03:53:18;;;;;;;11.13;7.70;;;9.70;55.10;;;;;;5046681;28;20037;-88
2023/02/17 03:55:44;;;;;;;11.77;8.15;;;9.70;55.10;;;;;;5011850;28;20210;-87
2023/02/17 03:58:10;;;;;;;11.77;8.23;;;9.70;55.20;;;;;;5032304;28;20051;-88
2023/02/17 04:00:35;;;;;;;10.05;7.38;;;9.70;55.20;;;;;;5032205;28;20029;-87
2023/02/17 04:03:01;;;;;;;11.15;7.55;;;9.70;55.20;;;;;;5034201;28;20044;-86
2023/02/17 04:05:27;;;;;;;12.88;7.60;;;9.70;55.10;;;;;;5031156;28;20037;-75
2023/02/17 04:07:53;;;;;;;12.15;7.75;;;9.70;55.10;;;;;;5037735;28;20045;-76
2023/02/17 04:10:19;;;;;;;10.88;7.60;;;9.70;55.10;;;;;;5034899;28;20120;-75
2023/02/17 04:12:45;;;;;;;10.77;7.32;;;9.70;55.10;;;;;;5032821;28;20076;-75
2023/02/17 04:15:11;;;;;;;12.73;7.53;;;9.70;55.00;;;;;;5034596;28;20087;-76
2023/02/17 04:17:38;;;;;;;11.80;7.20;;;9.70;54.90;;;;;;5032977;28;20183;-76
2023/02/17 04:20:05;;;;;;;10.27;6.55;;;9.70;54.80;;;;;;5032945;28;20519;-75
2023/02/17 04:22:31;;;;;;;11.48;7.40;;;9.70;54.80;;;;;;5049458;28;20041;-75
2023/02/17 04:24:57;;;;;;;12.75;7.65;;;9.70;54.80;;;;;;5032939;28;20396;-74
2023/02/17 04:27:23;;;;;;;9.50;7.20;;;9.70;54.80;;;;;;5035014;28;20038;-74
2023/02/17 04:29:50;;;;;;;9.85;6.57;;;9.70;54.90;;;;;;5033140;28;20041;-74
2023/02/17 04:32:16;;;;;;;13.85;6.90;;;9.70;54.90;;;;;;5032342;28;20063;-75
2023/02/17 04:34:42;;;;;;;8.93;6.82;;;9.70;54.90;;;;;;5034637;28;20056;-75
2023/02/17 04:37:08;;;;;;;10.40;6.80;;;9.70;54.90;;;;;;5033498;28;20080;-76
2023/02/17 04:39:34;;;;;;;10.05;6.45;;;9.70;55.00;;;;;;5032755;28;20025;-75
2023/02/17 04:42:00;;;;;;;9.48;6.45;;;9.70;55.00;;;;;;5033473;28;20174;-74
2023/02/17 04:44:26;;;;;;;11.25;6.35;;;9.70;55.00;;;;;;5036300;28;20039;-73
2023/02/17 04:46:52;;;;;;;10.77;6.68;;;9.70;55.10;;;;;;5045017;28;20407;-73
2023/02/17 04:49:17;;;;;;;8.52;6.30;;;9.70;55.10;;;;;;5031316;28;20030;-74
2023/02/17 04:51:43;;;;;;;8.93;6.32;;;9.70;55.20;;;;;;5042720;28;20021;-76
2023/02/17 04:54:09;;;;;;;10.80;6.65;;;9.70;55.30;;;;;;5048627;28;20041;-75
2023/02/17 04:56:35;;;;;;;9.65;6.68;;;9.70;55.60;;;;;;5040884;28;20029;-75
2023/02/17 04:59:01;;;;;;;12.93;6.78;;;9.70;55.60;;;;;;5042370;28;20529;-74
2023/02/17 05:01:27;;;;;;;10.50;7.05;;;9.70;55.80;;;;;;5033443;28;20049;-75
2023/02/17 05:03:53;;;;;;;10.95;7.18;;;9.70;55.80;;;;;;5033299;28;20151;-75
2023/02/17 05:06:19;;;;;;;12.07;7.93;;;9.70;55.90;;;;;;5034693;28;20062;-75
2023/02/17 05:08:47;;;;;;;10.95;7.22;;;9.70;55.70;;;;;;5032134;28;20404;-75
2023/02/17 05:11:13;;;;;;;9.60;6.70;;;9.70;55.80;;;;;;5014341;28;20587;-74
2023/02/17 05:13:39;;;;;;;9.95;7.65;;;9.70;55.80;;;;;;5032339;28;20037;-75
2023/02/17 05:16:05;;;;;;;10.55;7.03;;;9.70;55.90;;;;;;5032744;28;20066;-74
2023/02/17 05:18:31;;;;;;;9.93;6.88;;;9.70;55.90;;;;;;5035946;28;20038;-75
2023/02/17 05:20:57;;;;;;;10.55;6.88;;;9.70;55.90;;;;;;5032343;28;20029;-76
2023/02/17 05:23:23;;;;;;;10.77;7.45;;;9.80;55.80;;;;;;5033680;28;20140;-74
2023/02/17 05:25:49;;;;;;;12.13;7.70;;;9.70;55.80;;;;;;5032129;28;20042;-76
2023/02/17 05:28:15;;;;;;;9.32;7.10;;;9.70;55.80;;;;;;5033131;28;20035;-74
2023/02/17 05:30:40;;;;;;;11.77;7.78;;;9.70;55.80;;;;;;5032668;28;20025;-74
2023/02/17 05:33:06;;;;;;;13.35;7.32;;;9.70;55.70;;;;;;5032989;28;20045;-74
2023/02/17 05:35:34;;;;;;;10.18;7.40;;;9.70;55.70;;;;;;5015758;28;20053;-74
2023/02/17 05:38:00;;;;;;;8.88;6.45;;;9.80;55.60;;;;;;5034340;28;20091;-74
2023/02/17 05:40:26;;;;;;;10.38;7.13;;;9.70;55.40;;;;;;5032718;28;20041;-74
2023/02/17 05:42:52;;;;;;;12.63;7.75;;;9.70;55.30;;;;;;5033643;28;20124;-74
2023/02/17 05:45:18;;;;;;;10.77;7.30;;;9.80;55.30;;;;;;5033165;28;20030;-74
2023/02/17 05:47:43;;;;;;;10.43;7.40;;;9.80;55.30;;;;;;5032991;28;20044;-75
2023/02/17 05:50:10;;;;;;;10.90;7.38;;;9.80;55.20;;;;;;5033516;28;20041;-74
2023/02/17 05:52:36;;;;;;;12.35;7.68;;;9.80;55.20;;;;;;5033210;28;20484;-74
2023/02/17 05:55:03;;;;;;;11.75;7.38;;;9.80;55.10;;;;;;4997222;28;20041;-73
2023/02/17 05:57:30;;;;;;;11.48;6.80;;;9.80;55.00;;;;;;5033812;28;20090;-74
2023/02/17 05:59:55;;;;;;;9.45;6.88;;;9.80;54.90;;;;;;5033837;28;20075;-73
2023/02/17 06:02:21;;;;;;;9.73;7.20;;;9.80;54.90;;;;;;5032178;28;20531;-73
2023/02/17 06:04:47;;;;;;;11.05;6.40;;;9.80;54.90;;;;;;5046811;28;20045;-73
2023/02/17 06:07:13;;;;;;;10.27;7.22;;;9.80;54.90;;;;;;5033192;28;20029;-75
2023/02/17 06:09:39;;;;;;;10.50;6.82;;;9.80;54.90;;;;;;5035582;28;20112;-75
2023/02/17 06:12:05;;;;;;;10.77;6.60;;;9.80;54.90;;;;;;5034834;28;20045;-75
2023/02/17 06:14:31;;;;;;;11.10;7.20;;;9.80;54.90;;;;;;5034717;28;20087;-75
2023/02/17 06:16:59;;;;;;;10.68;6.53;;;9.80;54.90;;;;;;5036719;28;20531;-75
2023/02/17 06:19:25;;;;;;;10.73;7.38;;;9.80;54.90;;;;;;5036408;28;20775;-75
2023/02/17 06:21:51;;;;;;;9.55;6.88;;;9.80;54.90;;;;;;5036997;28;20557;-74
2023/02/17 06:24:17;;;;;;;12.70;7.45;;;9.80;54.80;;;;;;5037423;28;20417;-75
2023/02/17 06:26:43;;;;;;;11.70;6.95;;;9.90;54.80;;;;;;5034617;28;20025;-74
2023/02/17 06:29:09;;;;;;;9.95;6.78;;;9.90;54.90;;;;;;5036009;28;20539;-74
2023/02/17 06:31:35;;;;;;;12.43;7.00;;;9.90;54.80;;;;;;5051253;28;20029;-75
2023/02/17 06:34:01;;;;;;;10.70;7.03;;;9.90;54.80;;;;;;5036864;28;20104;-74
2023/02/17 06:36:27;;;;;;;10.38;7.18;;;9.90;54.80;;;;;;5051441;28;20028;-74
2023/02/17 06:38:52;;;;;;;10.40;6.65;;;9.90;54.70;;;;;;5036279;28;20171;-73
2023/02/17 06:41:19;;;;;;;11.15;7.05;;;9.90;54.80;;;;;;5039800;28;20033;-74
2023/02/17 06:43:44;;;;;;;10.00;6.43;;;9.90;54.70;;;;;;5035707;28;20029;-74
2023/02/17 06:46:11;;;;;;;10.98;6.78;;;9.90;54.70;;;;;;5035656;28;20040;-75
2023/02/17 06:48:37;;;;;;;9.05;6.10;;;9.90;54.70;;;;;;5037416;28;20486;-74
2023/02/17 06:51:03;;;;;;;10.15;6.78;;;9.90;54.60;;;;;;5035597;28;20038;-75
2023/02/17 06:53:29;;;;;;;9.35;5.97;;;10.00;54.70;;;;;;5036101;28;20034;-74
2023/02/17 06:55:55;;;;;;;8.20;5.90;;;9.90;54.50;;;;;;5035675;28;20423;-74
2023/02/17 06:58:21;;;;;;;8.02;5.38;;;10.00;54.40;;;;;;5034095;28;20640;-74
2023/02/17 07:00:47;;;;;;;7.93;5.50;;;10.00;54.40;;;;;;5036725;28;20399;-73
2023/02/17 07:03:13;;;;;;;7.97;5.05;;;10.00;54.20;;;;;;5035550;28;21815;-73
2023/02/17 07:05:39;;;;;;;7.40;5.20;;;10.00;54.10;;;;;;5022076;28;20419;-76
2023/02/17 07:08:05;;;;;;;7.40;5.40;;;10.00;54.20;;;;;;5035897;28;20636;-75
2023/02/17 07:10:32;;;;;;;5.57;4.55;;;10.00;54.10;;;;;;5034876;28;20033;-74
2023/02/17 07:12:58;;;;;;;7.95;5.03;;;10.00;54.10;;;;;;5035555;28;20037;-73
2023/02/17 07:15:24;;;;;;;7.47;5.22;;;10.10;54.70;;;;;;5035925;28;20412;-73
2023/02/17 07:17:50;;;;;;;6.78;4.80;;;10.10;54.00;;;;;;5032013;28;20060;-74
2023/02/17 07:20:16;;;;;;;7.97;4.88;;;10.10;53.90;;;;;;5031963;28;20059;-74
2023/02/17 07:22:42;;;;;;;7.50;5.32;;;10.10;53.80;;;;;;5034644;28;20083;-73
2023/02/17 07:25:08;;;;;;;7.90;5.40;;;10.20;53.80;;;;;;5034854;28;20162;-74
2023/02/17 07:27:35;;;;;;;9.75;5.22;;;10.20;53.70;;;;;;5034460;28;20131;-72
2023/02/17 07:30:02;;;;;;;7.80;5.18;;;10.20;53.60;;;;;;5034839;28;20037;-73
2023/02/17 07:32:28;;;;;;;7.78;5.55;;;10.20;53.60;;;;;;5032403;28;20029;-74
2023/02/17 07:34:54;;;;;;;7.97;4.90;;;10.30;53.50;;;;;;5031629;28;20029;-73
2023/02/17 07:37:20;;;;;;;7.18;5.25;;;10.30;53.40;;;;;;5031981;28;20033;-73
2023/02/17 07:39:51;;;;;;;7.05;5.25;;;10.40;53.40;;;;;;5033072;28;20079;-73
2023/02/17 07:42:17;;;;;;;6.85;4.90;;;10.40;53.30;;;;;;5032396;28;20076;-73
2023/02/17 07:44:45;;;;;;;7.95;4.85;;;10.40;53.20;;;;;;5029861;28;20105;-73
2023/02/17 07:47:11;;;;;;;7.65;4.65;;;10.50;53.20;;;;;;5032490;28;20043;-75
2023/02/17 07:49:37;;;;;;;6.95;5.10;;;10.50;53.10;;;;;;5032045;28;20037;-75
2023/02/17 07:52:04;;;;;;;6.63;4.55;;;10.50;52.90;;;;;;5030736;28;20038;-73
2023/02/17 07:54:29;;;;;;;7.38;4.88;;;10.50;52.80;;;;;;5033490;28;20038;-76
2023/02/17 07:56:55;;;;;;;7.82;4.95;;;10.60;52.80;;;;;;5032263;28;20507;-74
2023/02/17 07:59:21;;;;;;;6.15;4.60;;;10.60;52.60;;;;;;5030518;28;20557;-74
2023/02/17 08:01:48;;;;;;;6.55;4.75;;;10.60;52.60;;;;;;5032251;28;20094;-74
2023/02/17 08:04:15;;;;;;;7.03;4.93;;;10.60;52.60;;;;;;5031942;28;20037;-74
2023/02/17 08:06:41;;;;;;;7.82;4.40;;;10.60;52.50;;;;;;5032572;28;20021;-75
2023/02/17 08:14:38;;;;;;;5.50;4.25;;;10.70;52.30;;;;;;5032287;28;20141;-74
2023/02/17 08:17:05;;;;;;;6.03;4.53;;;10.70;52.20;;;;;;5029271;28;20698;-73
2023/02/17 08:19:31;;;;;;;6.72;4.60;;;10.70;52.20;;;;;;5030819;28;20118;-73
2023/02/17 08:21:57;;;;;;;6.43;4.32;;;10.80;52.30;;;;;;5032054;28;20033;-73
2023/02/17 08:24:23;;;;;;;6.15;4.47;;;10.80;52.20;;;;;;5031151;28;20041;-73
2023/02/17 08:26:49;;;;;;;6.75;4.65;;;10.80;52.20;;;;;;5031602;28;20045;-74
2023/02/17 08:29:15;;;;;;;7.30;4.95;;;10.80;52.10;;;;;;5031999;28;20114;-74
2023/02/17 08:31:42;;;;;;;5.22;4.18;;;10.90;52.20;;;;;;5031248;28;20028;-74
2023/02/17 08:34:10;;;;;;;6.55;4.95;;;10.90;52.20;;;;;;5030851;28;20618;-73
2023/02/17 08:36:37;;;;;;;6.13;4.53;;;10.90;52.20;;;;;;5036950;28;20120;-73
2023/02/17 08:39:06;;;;;;;5.82;5.00;;;10.90;52.10;;;;;;5029523;28;20038;-74
2023/02/17 08:41:37;;;;;;;5.32;4.13;;;10.90;52.10;;;;;;5030577;28;20099;-73
2023/02/17 08:44:08;;;;;;;7.28;4.65;;;11.00;52.10;;;;;;5029336;28;20029;-73
2023/02/17 08:46:35;;;;;;;5.72;4.43;;;11.00;52.10;;;;;;5031475;28;20033;-74
2023/02/17 08:49:02;;;;;;;6.97;4.90;;;11.00;52.00;;;;;;5030590;28;20030;-74
2023/02/17 08:51:28;;;;;;;6.13;4.97;;;11.00;52.00;;;;;;5031596;28;20033;-74
2023/02/17 08:53:57;;;;;;;5.95;4.50;;;11.00;51.90;;;;;;5030682;28;20051;-74
2023/02/17 08:56:25;;;;;;;6.63;4.50;;;11.00;51.80;;;;;;5030029;28;20036;-74
2023/02/17 08:58:51;;;;;;;6.20;4.80;;;11.00;51.80;;;;;;5029196;28;20037;-74
2023/02/17 09:01:18;;;;;;;6.82;4.70;;;11.00;51.80;;;;;;5031630;28;20046;-73
2023/02/17 09:03:45;;;;;;;6.22;4.88;;;11.00;51.80;;;;;;5030811;28;20074;-74
2023/02/17 09:06:12;;;;;;;5.97;4.93;;;11.10;51.90;;;;;;5030403;28;20424;-74
2023/02/17 09:08:39;;;;;;;8.77;5.53;;;11.10;51.90;;;;;;5031194;28;20553;-73
2023/02/17 09:11:07;;;;;;;7.07;5.10;;;11.10;51.90;;;;;;5036802;28;20044;-73
2023/02/17 09:13:34;;;;;;;7.72;5.32;;;11.10;51.90;;;;;;5033267;28;20048;-73
2023/02/17 09:16:01;;;;;;;6.65;5.28;;;11.10;51.90;;;;;;5034192;28;20074;-72
2023/02/17 09:18:27;;;;;;;6.13;4.85;;;11.10;51.80;;;;;;5014876;28;20103;-73
2023/02/17 09:20:53;;;;;;;6.80;4.82;;;11.10;51.70;;;;;;5014354;28;20037;-73
2023/02/17 09:23:20;;;;;;;8.52;5.53;;;11.10;51.70;;;;;;5014673;28;20431;-73
2023/02/17 09:25:46;;;;;;;7.35;5.32;;;11.10;51.70;;;;;;5012333;28;20037;-73
2023/02/17 09:28:15;;;;;;;6.45;4.97;;;11.10;51.70;;;;;;5012643;28;20033;-73
2023/02/17 09:30:41;;;;;;;7.43;5.40;;;11.10;51.70;;;;;;5015279;28;20033;-73
2023/02/17 09:33:07;;;;;;;7.13;5.05;;;11.20;51.70;;;;;;5012081;28;20555;-73
2023/02/17 09:35:33;;;;;;;6.75;5.05;;;11.20;51.70;;;;;;5013557;28;20033;-73
2023/02/17 09:37:59;;;;;;;7.38;5.25;;;11.10;51.70;;;;;;5013967;28;20068;-73
2023/02/17 09:40:44;;;;;;;6.82;5.18;;;11.20;51.70;;;;;;5043864;28;20038;-73
2023/02/17 09:43:14;;;;;;;7.68;5.47;;;11.20;51.70;;;;;;5013452;28;20042;-72
2023/02/17 09:45:46;;;;;;;5.68;5.05;;;11.20;51.70;;;;;;5017457;28;20040;-73
2023/02/17 09:48:15;;;;;;;6.95;4.90;;;11.20;51.70;;;;;;5017014;28;20038;-73
2023/02/17 09:50:54;;;;;;;6.28;5.00;;;11.20;51.70;;;;;;5016861;28;20030;-74
2023/02/17 09:53:41;;;;;;;6.25;4.90;;;11.20;51.60;;;;;;5017545;28;20255;-73
2023/02/17 09:56:12;;;;;;;6.63;5.22;;;11.20;51.60;;;;;;5015867;28;20040;-74
2023/02/17 09:58:50;;;;;;;6.20;4.97;;;11.20;51.60;;;;;;5017992;28;20278;-73
2023/02/17 10:01:22;;;;;;;6.35;5.25;;;11.20;51.60;;;;;;5017646;28;20155;-73
2023/02/17 10:04:13;;;;;;;6.07;4.78;;;11.20;51.50;;;;;;5018360;28;20033;-73
2023/02/17 10:06:41;;;;;;;6.85;5.03;;;11.20;51.50;;;;;;5016846;28;20046;-73
2023/02/17 10:09:23;;;;;;;6.00;4.82;;;11.20;51.40;;;;;;5015100;28;20033;-73
2023/02/17 10:12:00;;;;;;;5.97;4.60;;;11.20;51.40;;;;;;5016450;28;20046;-73
2023/02/17 10:14:28;;;;;;;5.90;4.53;;;11.20;51.30;;;;;;5016936;28;20033;-74
2023/02/17 10:17:02;;;;;;;6.03;4.95;;;11.20;51.30;;;;;;5016142;28;20045;-73
2023/02/17 10:19:36;;;;;;;7.00;5.13;;;11.20;51.20;;;;;;5017116;28;20087;-73
2023/02/17 10:22:14;;;;;;;6.43;5.05;;;11.20;51.30;;;;;;5017203;28;20033;-72
2023/02/17 10:24:40;;;;;;;6.38;5.00;;;11.20;51.20;;;;;;5016152;28;20108;-73
2023/02/17 10:27:40;;;;;;;6.38;5.22;;;11.20;51.20;;;;;;5015841;28;20574;-74
2023/02/17 10:30:33;;;;;;;5.53;4.40;;;11.30;51.20;;;;;;5016194;28;20752;-73
2023/02/17 10:33:04;;;;;;;6.60;5.07;;;11.20;51.10;;;;;;5021903;28;20048;-73
2023/02/17 10:35:51;;;;;;;6.50;5.35;;;11.20;51.10;;;;;;5017002;28;20579;-74
2023/02/17 10:38:38;;;;;;;6.28;5.00;;;11.20;51.10;;;;;;5016719;28;20037;-73
2023/02/17 10:41:09;;;;;;;6.97;5.40;;;11.20;51.10;;;;;;5014533;28;20420;-73
2023/02/17 10:43:35;;;;;;;7.28;5.90;;;11.20;51.10;;;;;;5015251;28;20065;-74
2023/02/17 10:46:06;;;;;;;7.20;5.70;;;11.20;51.10;;;;;;5015777;28;20068;-73
2023/02/17 10:48:49;;;;;;;8.10;5.70;;;11.20;51.10;;;;;;5016194;28;20033;-73
2023/02/17 10:51:18;;;;;;;9.65;5.82;;;11.20;51.20;;;;;;5047807;28;20160;-75
2023/02/17 10:53:48;;;;;;;10.73;7.35;;;11.20;51.20;;;;;;5013959;28;20040;-75
2023/02/17 10:56:17;;;;;;;10.35;7.55;;;11.10;48.40;;;;;;5013223;28;20044;-75
2023/02/17 10:58:46;;;;;;;11.48;8.27;;;10.90;45.60;;;;;;5013309;28;20042;-76
2023/02/17 11:01:13;;;;;;;11.52;7.70;;;10.70;44.40;;;;;;5012793;28;20048;-77
2023/02/17 11:03:40;;;;;;;10.23;7.65;;;10.50;44.00;;;;;;5022849;28;20037;-78
2023/02/17 11:06:18;;;;;;;10.95;8.25;;;10.20;44.10;;;;;;5018589;28;20045;-78
2023/02/17 11:09:06;;;;;;;11.00;7.95;;;10.00;44.10;;;;;;5024012;28;20034;-77
2023/02/17 11:11:35;;;;;;;10.98;7.97;;;9.80;44.20;;;;;;4988588;28;20521;-79
2023/02/17 11:14:35;;;;;;;11.25;8.10;;;9.60;44.20;;;;;;5011732;28;20076;-79
2023/02/17 11:17:12;;;;;;;11.63;8.32;;;9.30;44.50;;;;;;5015055;28;20037;-79
2023/02/17 11:19:38;;;;;;;12.25;8.68;;;9.20;44.60;;;;;;5030539;28;20127;-78
2023/02/17 11:22:21;;;;;;;12.23;8.00;;;9.00;44.40;;;;;;5013253;28;20044;-78
2023/02/17 11:25:00;;;;;;;11.60;8.07;;;8.80;44.70;;;;;;4996648;28;20029;-78
2023/02/17 11:27:26;;;;;;;12.68;8.85;;;8.70;45.00;;;;;;5030152;28;20622;-77
2023/02/17 11:29:54;;;;;;;11.10;8.07;;;8.50;45.30;;;;;;5028678;28;20716;-77
2023/02/17 11:32:33;;;;;;;11.45;7.28;;;8.40;45.40;;;;;;5014169;28;20041;-78
2023/02/17 11:35:05;;;;;;;10.80;7.65;;;8.30;45.30;;;;;;5014182;28;20080;-80
2023/02/17 11:37:31;;;;;;;13.50;7.72;;;8.20;45.50;;;;;;5013010;28;21502;-77
2023/02/17 11:39:59;;;;;;;9.38;6.85;;;8.00;45.30;;;;;;5029446;28;20504;-78
2023/02/17 11:42:29;;;;;;;9.85;7.40;;;7.90;45.40;;;;;;4995977;28;20038;-76
2023/02/17 11:44:57;;;;;;;10.48;7.40;;;7.90;45.60;;;;;;5029672;28;20037;-74
2023/02/17 11:47:41;;;;;;;12.05;6.70;;;7.70;45.60;;;;;;5030001;28;20042;-75
2023/02/17 11:50:49;;;;;;;9.93;6.80;;;7.70;47.00;;;;;;5030494;28;20040;-74
2023/02/17 11:53:36;;;;;;;10.05;6.53;;;7.80;47.80;;;;;;5021270;28;20565;-74
2023/02/17 11:56:22;;;;;;;9.55;6.32;;;7.90;48.30;;;;;;5015441;28;20121;-74
2023/02/17 11:58:51;;;;;;;7.90;5.95;;;8.00;48.60;;;;;;5012892;28;20460;-75
2023/02/17 12:01:36;;;;;;;8.50;5.82;;;8.10;48.80;;;;;;5011205;28;20037;-74
2023/02/17 12:04:24;;;;;;;9.57;6.40;;;8.20;48.90;;;;;;5012857;28;20123;-74
2023/02/17 12:06:58;;;;;;;9.70;6.10;;;8.30;49.10;;;;;;5012232;28;20037;-76
2023/02/17 12:09:55;;;;;;;9.50;6.15;;;8.30;49.40;;;;;;5009781;28;20125;-77
2023/02/17 12:12:40;;;;;;;9.40;6.50;;;8.40;49.60;;;;;;5027474;28;20466;-77
2023/02/17 12:15:25;;;;;;;10.00;6.40;;;8.50;49.80;;;;;;5011139;28;20523;-77
2023/02/17 12:18:01;;;;;;;9.30;6.43;;;8.50;49.90;;;;;;5011418;28;20042;-77
2023/02/17 12:20:39;;;;;;;9.18;5.85;;;8.60;50.00;;;;;;5043987;28;20048;-77
2023/02/17 12:23:24;;;;;;;9.75;6.53;;;8.60;50.00;;;;;;5042951;28;20482;-77
2023/02/17 12:25:58;;;;;;;9.48;6.28;;;8.70;50.00;;;;;;5012499;28;20053;-76
2023/02/17 12:28:54;;;;;;;8.05;6.00;;;8.70;49.90;;;;;;5043919;28;20431;-77
2023/02/17 12:31:20;;;;;;;10.00;6.50;;;8.80;50.00;;;;;;5024152;28;20690;-78
2023/02/17 12:34:14;;;;;;;9.48;6.88;;;8.80;49.80;;;;;;5012706;28;20578;-77
2023/02/17 12:36:42;;;;;;;9.07;6.43;;;8.80;49.80;;;;;;5011932;28;20041;-78
2023/02/17 12:39:33;;;;;;;8.65;6.40;;;8.80;49.70;;;;;;5011775;28;20029;-77
2023/02/17 12:42:11;;;;;;;9.82;6.30;;;8.80;49.80;;;;;;5011995;28;20599;-77
2023/02/17 12:44:50;;;;;;;10.07;6.10;;;8.80;49.80;;;;;;5011492;28;20617;-77
2023/02/17 12:47:37;;;;;;;8.80;6.70;;;8.90;49.80;;;;;;5011320;28;20500;-77
2023/02/17 12:50:19;;;;;;;8.10;6.22;;;8.90;49.90;;;;;;5012181;28;20033;-77
2023/02/17 12:52:51;;;;;;;13.20;6.25;;;8.90;50.00;;;;;;5011053;28;20084;-77
2023/02/17 12:55:24;;;;;;;8.48;6.03;;;8.90;50.10;;;;;;5010972;28;20104;-79
2023/02/17 12:57:54;;;;;;;8.63;5.85;;;9.00;50.20;;;;;;5012005;28;20028;-77
2023/02/17 13:00:26;;;;;;;8.60;5.80;;;9.00;50.20;;;;;;5010970;28;20474;-79
2023/02/17 13:02:57;;;;;;;8.93;6.25;;;9.00;50.20;;;;;;5043018;28;20049;-78
2023/02/17 13:05:36;;;;;;;8.98;6.72;;;9.00;50.20;;;;;;5010915;28;20053;-77
2023/02/17 13:08:10;;;;;;;8.65;6.40;;;9.00;50.20;;;;;;5026622;28;20038;-78
2023/02/17 13:10:38;;;;;;;11.15;7.13;;;9.00;50.20;;;;;;5011168;28;20172;-78
2023/02/17 13:13:08;;;;;;;9.07;6.45;;;9.10;50.20;;;;;;5013338;28;20516;-77